Time;durP1;ratioP1;P1;durP2;ratioP2;P2;SDS_P1;SDS_P2;PMS_P1;PMS_P2;Temp;Humidity;BMP_temperature;BMP_pressure;BME280_temperature;BME280_humidity;BME280_pressure;Samples;Min_cycle;Max_cycle;Signal;HPM_P1;HPM_P2
2021/10/18 00:01:26;;;;;;;1.95;1.85;;;;;;;11.91;72.80;100514.19;4862383;29;20038;-75
2021/10/18 00:03:52;;;;;;;2.85;2.75;;;;;;;11.90;72.98;100520.78;4869218;29;20036;-75
2021/10/18 00:06:18;;;;;;;2.88;2.78;;;;;;;11.85;73.35;100518.03;4923083;29;20039;-75
2021/10/18 00:08:43;;;;;;;3.65;3.25;;;;;;;11.90;73.16;100522.69;4920268;29;20327;-73
2021/10/18 00:11:09;;;;;;;4.30;4.10;;;;;;;11.89;73.91;100521.88;4911565;29;20028;-74
2021/10/18 00:13:35;;;;;;;3.92;3.72;;;;;;;11.86;73.73;100519.69;4918502;29;20119;-73
2021/10/18 00:16:00;;;;;;;3.38;3.17;;;;;;;11.92;73.89;100532.28;4925197;29;20029;-72
2021/10/18 00:18:26;;;;;;;3.85;3.55;;;;;;;11.94;73.70;100529.31;4912677;29;20529;-73
2021/10/18 00:20:52;;;;;;;5.15;4.72;;;;;;;11.91;73.88;100533.38;4893056;29;20039;-72
2021/10/18 00:23:17;;;;;;;4.97;4.60;;;;;;;11.94;74.09;100534.78;4912057;29;20032;-73
2021/10/18 00:25:43;;;;;;;4.95;4.57;;;;;;;11.91;74.21;100529.81;4911524;29;20036;-72
2021/10/18 00:28:10;;;;;;;4.93;4.72;;;;;;;11.92;74.29;100536.97;4918945;29;20060;-73
2021/10/18 00:30:35;;;;;;;4.25;4.05;;;;;;;11.92;74.37;100535.03;4919742;29;20575;-71
2021/10/18 00:33:01;;;;;;;4.25;4.05;;;;;;;11.88;74.66;100532.03;4919929;29;20044;-72
2021/10/18 00:35:26;;;;;;;4.45;4.05;;;;;;;11.91;74.37;100533.38;4904523;29;20058;-73
2021/10/18 00:37:52;;;;;;;5.25;5.05;;;;;;;11.88;74.73;100532.03;4921630;29;20640;-73
2021/10/18 00:40:17;;;;;;;6.00;4.70;;;;;;;11.89;75.19;100530.09;4920678;29;20146;-73
2021/10/18 00:42:43;;;;;;;5.10;4.70;;;;;;;11.86;75.00;100522.41;4922252;29;20036;-72
2021/10/18 00:45:09;;;;;;;4.05;3.85;;;;;;;11.88;75.04;100525.69;4900737;29;20046;-71
2021/10/18 00:47:35;;;;;;;4.07;3.70;;;;;;;11.91;75.05;100536.13;4920738;29;20012;-71
2021/10/18 00:50:03;;;;;;;3.00;2.78;;;;;;;11.91;74.70;100530.63;4926841;29;20839;-72
2021/10/18 00:52:29;;;;;;;2.65;2.50;;;;;;;11.89;74.74;100535.56;4909530;29;20375;-72
2021/10/18 00:55:07;;;;;;;3.40;3.20;;;;;;;11.86;74.79;100522.41;4923503;29;20036;-71
2021/10/18 00:57:36;;;;;;;3.67;3.38;;;;;;;11.85;74.76;100520.78;4915693;29;20028;-71
2021/10/18 01:00:03;;;;;;;4.70;4.35;;;;;;;11.91;74.88;100529.81;4929613;29;20070;-72
2021/10/18 01:02:31;;;;;;;3.65;3.55;;;;;;;11.86;74.92;100508.72;4929162;29;20024;-73
2021/10/18 01:04:59;;;;;;;2.58;2.47;;;;;;;11.84;74.65;100514.47;4926351;29;20109;-71
2021/10/18 01:07:28;;;;;;;2.53;2.42;;;;;;;11.89;75.20;100516.41;4922031;29;20079;-73
2021/10/18 01:09:53;;;;;;;2.78;2.58;;;;;;;11.80;75.21;100513.38;4921538;29;20092;-72
2021/10/18 01:12:29;;;;;;;;;;;;;;;;;;;;;
2021/10/18 01:14:55;;;;;;;1.75;1.65;;;;;;;11.79;74.66;100513.66;4941371;29;20091;-74
2021/10/18 01:17:20;;;;;;;1.40;1.40;;;;;;;11.80;74.97;100529.00;4922459;29;20029;-73
2021/10/18 01:19:51;;;;;;;1.85;1.75;;;;;;;11.68;74.87;100505.41;4924962;29;20091;-72
2021/10/18 01:22:21;;;;;;;1.90;1.80;;;;;;;11.78;74.72;100526.50;4930144;29;20020;-71
2021/10/18 01:24:48;;;;;;;1.10;1.10;;;;;;;11.76;75.04;100534.19;4925689;29;20040;-72
2021/10/18 01:27:14;;;;;;;1.00;1.00;;;;;;;11.69;74.61;100522.66;4921756;29;20048;-72
2021/10/18 01:29:42;;;;;;;0.80;0.80;;;;;;;11.70;74.60;100514.16;4920218;29;20047;-71
2021/10/18 01:32:10;;;;;;;0.95;0.95;;;;;;;11.64;75.00;100509.78;4924067;29;20111;-71
2021/10/18 01:34:36;;;;;;;0.77;0.77;;;;;;;11.69;74.58;100520.72;4919604;29;20038;-70
2021/10/18 01:37:03;;;;;;;1.15;1.05;;;;;;;11.69;74.44;100523.47;4925635;29;20039;-70
2021/10/18 01:39:29;;;;;;;3.15;1.58;;;;;;;11.67;74.63;100520.19;4921111;29;20032;-71
2021/10/18 01:41:58;;;;;;;1.10;1.00;;;;;;;11.59;74.69;100500.72;4920245;29;20032;-71
2021/10/18 01:44:23;;;;;;;1.48;1.42;;;;;;;11.56;75.01;100496.59;4924369;29;20099;-73
2021/10/18 01:46:49;;;;;;;1.73;1.63;;;;;;;11.57;74.75;100498.25;4918158;29;20055;-72
2021/10/18 01:49:14;;;;;;;2.35;2.25;;;;;;;11.61;74.90;100507.59;4924721;29;20052;-72
2021/10/18 01:51:40;;;;;;;2.38;2.17;;;;;;;11.62;74.81;100509.25;4923980;29;20087;-73
2021/10/18 01:54:06;;;;;;;2.60;2.50;;;;;;;11.60;74.63;100514.16;4920925;29;20073;-73
2021/10/18 01:56:33;;;;;;;3.65;3.10;;;;;;;11.58;74.85;100510.03;4923711;29;20054;-72
2021/10/18 01:59:00;;;;;;;3.80;3.50;;;;;;;11.62;75.28;100511.97;4924020;29;20038;-71
2021/10/18 02:01:25;;;;;;;4.00;3.75;;;;;;;11.61;74.89;100509.47;4921552;29;20496;-71
2021/10/18 02:04:03;;;;;;;;;;;;;;;;;;;;;
2021/10/18 02:06:29;;;;;;;4.63;4.32;;;;;;;11.65;75.93;100508.69;4909590;29;20096;-71
2021/10/18 02:08:57;;;;;;;4.47;3.75;;;;;;;11.70;75.81;100508.69;4919828;29;20490;-71
2021/10/18 02:11:23;;;;;;;7.88;3.70;;;;;;;11.72;75.47;100504.88;4915618;29;20030;-72
2021/10/18 02:13:48;;;;;;;5.32;3.85;;;;;;;11.74;75.91;100502.66;4922763;29;20028;-72
2021/10/18 02:16:22;;;;;;;3.75;3.55;;;;;;;11.78;76.03;100504.59;4919346;29;20036;-72
2021/10/18 02:18:47;;;;;;;2.88;2.78;;;;;;;11.73;75.61;100484.59;4933981;29;20506;-74
2021/10/18 02:21:13;;;;;;;3.08;2.88;;;;;;;11.81;75.61;100495.00;4918365;29;20113;-74
2021/10/18 02:23:39;;;;;;;3.50;3.30;;;;;;;11.81;76.26;100493.09;4924955;29;20423;-74
2021/10/18 02:26:04;;;;;;;2.67;2.58;;;;;;;11.82;76.07;100491.19;4898377;29;20087;-73
2021/10/18 02:28:43;;;;;;;3.38;3.17;;;;;;;11.77;76.23;100481.03;4913573;29;20052;-73
2021/10/18 02:31:09;;;;;;;4.10;2.97;;;;;;;11.87;76.45;100496.66;4908091;29;20040;-72
2021/10/18 02:33:34;;;;;;;2.97;2.78;;;;;;;11.88;76.22;100490.06;4917267;29;20056;-73
2021/10/18 02:36:00;;;;;;;2.72;2.63;;;;;;;11.84;76.00;100495.31;4920800;29;20043;-74
2021/10/18 02:38:25;;;;;;;2.67;2.47;;;;;;;11.88;75.66;100487.34;4904431;29;20054;-72
2021/10/18 02:40:51;;;;;;;1.90;1.80;;;;;;;11.88;75.89;100487.34;4916109;29;20040;-72
2021/10/18 02:43:17;;;;;;;1.60;1.50;;;;;;;11.86;76.12;100476.66;4914858;29;20047;-71
2021/10/18 02:45:42;;;;;;;1.13;1.10;;;;;;;11.92;76.29;100473.94;4914032;29;20391;-70
2021/10/18 02:48:15;;;;;;;1.65;1.55;;;;;;;11.91;75.93;100464.88;4920548;29;20139;-72
2021/10/18 02:50:41;;;;;;;1.65;1.65;;;;;;;11.94;75.23;100479.97;4923457;29;20038;-73
2021/10/18 02:53:09;;;;;;;1.42;1.42;;;;;;;11.92;75.94;100469.25;4920107;29;20162;-72
2021/10/18 02:55:35;;;;;;;1.65;1.55;;;;;;;11.95;75.96;100471.47;4922035;29;20036;-74
2021/10/18 02:58:00;;;;;;;2.00;1.90;;;;;;;11.95;75.52;100466.00;4917289;29;20032;-72
2021/10/18 03:00:26;;;;;;;2.10;2.00;;;;;;;11.93;75.36;100446.28;4922528;29;20106;-73
2021/10/18 03:02:51;;;;;;;2.42;2.33;;;;;;;11.99;75.64;100449.84;4915510;29;20043;-71
2021/10/18 03:05:27;;;;;;;3.13;2.97;;;;;;;11.97;75.79;100438.31;4900729;29;20044;-73
2021/10/18 03:07:55;;;;;;;2.72;2.63;;;;;;;12.07;75.61;100445.72;4922321;29;20498;-73
2021/10/18 03:10:21;;;;;;;2.45;2.35;;;;;;;12.07;75.24;100445.72;4934887;29;20055;-73
2021/10/18 03:12:47;;;;;;;1.52;1.42;;;;;;;12.00;74.85;100441.34;4924234;29;20028;-72
2021/10/18 03:15:13;;;;;;;1.15;1.15;;;;;;;11.98;74.95;100432.56;4928287;29;20032;-74
2021/10/18 03:17:41;;;;;;;0.85;0.85;;;;;;;11.97;74.94;100430.94;4927717;29;20040;-73
2021/10/18 03:20:11;;;;;;;1.35;1.25;;;;;;;11.93;74.54;100418.88;4908752;29;20059;-74
2021/10/18 03:22:37;;;;;;;1.67;1.58;;;;;;;11.94;75.06;100428.72;4924787;29;20024;-72
2021/10/18 03:25:10;;;;;;;1.77;1.67;;;;;;;11.92;74.93;100425.41;4922061;29;20020;-69
2021/10/18 03:27:37;;;;;;;1.77;1.67;;;;;;;11.87;74.76;100428.16;4918728;29;20055;-73
2021/10/18 03:30:14;;;;;;;;;;;;;;;;;;;;;
2021/10/18 03:32:40;;;;;;;1.30;1.30;;;;;;;11.91;75.26;100431.16;4925413;29;20581;-71
2021/10/18 03:35:07;;;;;;;1.52;1.20;;;;;;;11.83;75.00;100424.34;4907514;29;20060;-73
2021/10/18 03:37:34;;;;;;;1.20;1.20;;;;;;;11.88;75.11;100438.03;4912298;29;20028;-73
2021/10/18 03:40:00;;;;;;;1.70;1.60;;;;;;;11.85;75.34;100433.09;4924831;29;20036;-72
2021/10/18 03:42:26;;;;;;;1.95;1.85;;;;;;;11.88;74.66;100421.56;4925897;29;20040;-72
2021/10/18 03:44:51;;;;;;;2.15;2.05;;;;;;;11.82;75.19;100419.94;4925170;29;20051;-70
2021/10/18 03:47:19;;;;;;;2.15;2.05;;;;;;;11.90;75.35;100408.44;4922730;29;20020;-70
2021/10/18 03:49:45;;;;;;;2.33;2.13;;;;;;;11.93;75.30;100407.91;4912374;29;20036;-71
2021/10/18 03:52:11;;;;;;;1.67;1.63;;;;;;;11.88;75.24;100407.88;4925254;29;20032;-71
2021/10/18 03:54:43;;;;;;;1.70;1.70;;;;;;;11.86;74.85;100410.09;4927131;29;20028;-73
2021/10/18 03:57:09;;;;;;;2.08;1.98;;;;;;;11.85;74.96;100422.13;4926215;29;20111;-73
2021/10/18 03:59:37;;;;;;;2.70;2.60;;;;;;;11.90;75.47;100422.16;4926807;29;20035;-71
2021/10/18 04:02:04;;;;;;;2.60;2.47;;;;;;;11.92;74.66;100428.16;4921088;29;20119;-71
2021/10/18 04:04:30;;;;;;;4.32;4.13;;;;;;;11.94;74.87;100436.13;4928511;29;20071;-72
2021/10/18 04:06:55;;;;;;;2.75;2.33;;;;;;;11.94;75.55;100436.94;4921561;29;20411;-72
2021/10/18 04:09:23;;;;;;;2.47;2.38;;;;;;;11.94;75.04;100425.97;4941379;29;20040;-73
2021/10/18 04:11:54;;;;;;;2.80;2.70;;;;;;;11.94;75.83;100428.72;4926166;29;20064;-71
2021/10/18 04:14:29;;;;;;;1.95;1.85;;;;;;;11.91;75.39;100437.47;4926131;29;20040;-72
2021/10/18 04:16:54;;;;;;;3.25;3.15;;;;;;;11.93;75.37;100457.25;4923668;29;20099;-71
2021/10/18 04:19:20;;;;;;;5.45;2.90;;;;;;;11.91;75.31;100455.84;4909326;29;20028;-73
2021/10/18 04:21:46;;;;;;;3.40;3.30;;;;;;;11.91;75.76;100459.38;4927582;29;20025;-73
2021/10/18 04:24:11;;;;;;;2.60;2.50;;;;;;;11.89;75.84;100450.63;4924242;29;20031;-73
2021/10/18 04:26:37;;;;;;;3.13;2.03;;;;;;;11.92;75.45;100450.06;4908670;29;20404;-74
2021/10/18 04:29:07;;;;;;;3.30;3.05;;;;;;;11.92;76.24;100454.75;4924122;29;20091;-73
2021/10/18 04:31:34;;;;;;;4.25;4.05;;;;;;;11.92;75.70;100455.56;4910315;29;20028;-73
2021/10/18 04:34:00;;;;;;;4.25;3.97;;;;;;;11.85;76.06;100428.41;4923981;29;20071;-73
2021/10/18 04:36:26;;;;;;;3.63;3.53;;;;;;;11.98;75.81;100442.72;4940248;29;20032;-72
2021/10/18 04:38:54;;;;;;;4.15;3.85;;;;;;;11.98;76.00;100448.19;4924482;29;20435;-73
2021/10/18 04:41:23;;;;;;;4.45;4.15;;;;;;;11.99;76.18;100444.38;4918651;29;20028;-72
2021/10/18 04:43:49;;;;;;;3.13;2.92;;;;;;;12.02;76.41;100439.16;4926063;29;20024;-74
2021/10/18 04:46:14;;;;;;;3.25;3.05;;;;;;;12.02;76.28;100432.84;4916118;29;20028;-73
2021/10/18 04:48:40;;;;;;;3.60;3.38;;;;;;;12.06;76.36;100442.13;4925793;29;20031;-73
2021/10/18 04:51:06;;;;;;;3.20;3.00;;;;;;;12.13;76.33;100458.31;4923004;29;20113;-72
2021/10/18 04:53:31;;;;;;;2.83;2.72;;;;;;;12.11;76.62;100471.50;4922000;29;20064;-71
2021/10/18 04:55:57;;;;;;;3.67;3.47;;;;;;;12.13;76.37;100466.53;4902082;29;20048;-72
2021/10/18 04:58:25;;;;;;;3.97;3.78;;;;;;;12.16;77.09;100455.88;4923868;29;20047;-72
2021/10/18 05:00:55;;;;;;;4.22;3.92;;;;;;;12.24;76.95;100462.69;4922790;29;20060;-72
2021/10/18 05:03:22;;;;;;;2.78;2.67;;;;;;;12.32;76.80;100464.84;4926143;29;20028;-73
2021/10/18 05:05:47;;;;;;;3.30;3.10;;;;;;;12.39;76.33;100448.13;4892556;29;20070;-72
2021/10/18 05:08:14;;;;;;;4.25;3.95;;;;;;;12.42;76.54;100449.50;4908877;29;20103;-72
2021/10/18 05:10:41;;;;;;;3.47;3.28;;;;;;;12.45;76.98;100446.22;4906881;29;20047;-72
2021/10/18 05:13:07;;;;;;;4.10;3.90;;;;;;;12.53;76.78;100456.63;4917302;29;20032;-70
2021/10/18 05:15:33;;;;;;;3.90;3.60;;;;;;;12.56;76.33;100445.09;4919647;29;20050;-71
2021/10/18 05:18:00;;;;;;;4.28;3.97;;;;;;;12.57;76.89;100443.97;4917823;29;20498;-70
2021/10/18 05:20:27;;;;;;;4.35;4.15;;;;;;;12.57;76.72;100457.69;4922300;29;20028;-70
2021/10/18 05:22:52;;;;;;;3.75;3.55;;;;;;;12.54;76.18;100470.06;4915670;29;20024;-70
2021/10/18 05:25:19;;;;;;;4.38;4.18;;;;;;;12.55;76.97;100465.38;4919376;29;20032;-70
2021/10/18 05:27:45;;;;;;;3.65;3.45;;;;;;;12.51;77.00;100456.06;4919865;29;20048;-72
2021/10/18 05:30:11;;;;;;;2.53;2.42;;;;;;;12.55;76.65;100446.19;4917499;29;20237;-71
2021/10/18 05:32:38;;;;;;;2.72;2.63;;;;;;;12.60;76.96;100437.94;4922132;29;20087;-73
2021/10/18 05:35:05;;;;;;;2.85;2.75;;;;;;;12.64;76.55;100444.50;4921235;29;20028;-72
2021/10/18 05:37:34;;;;;;;3.53;2.80;;;;;;;12.67;76.47;100454.91;4908798;29;20087;-73
2021/10/18 05:39:59;;;;;;;3.00;2.80;;;;;;;12.68;76.59;100445.59;4924418;29;20028;-72
2021/10/18 05:42:25;;;;;;;2.70;2.50;;;;;;;12.75;76.56;100440.63;4910926;29;20044;-72
2021/10/18 05:44:50;;;;;;;2.95;2.75;;;;;;;12.81;76.67;100438.69;4915075;29;20039;-72
2021/10/18 05:47:18;;;;;;;3.20;3.00;;;;;;;12.89;76.13;100442.75;4917986;29;20036;-72
2021/10/18 05:49:48;;;;;;;3.40;3.20;;;;;;;12.89;76.07;100435.38;4920682;29;20588;-72
2021/10/18 05:52:22;;;;;;;3.70;3.50;;;;;;;12.80;76.83;100423.31;4918563;29;20029;-70
2021/10/18 05:54:52;;;;;;;3.83;3.63;;;;;;;12.91;76.04;100416.69;4919399;29;20031;-73
2021/10/18 05:57:18;;;;;;;3.15;3.05;;;;;;;12.95;76.36;100413.38;4914659;29;20079;-72
2021/10/18 05:59:48;;;;;;;2.70;2.50;;;;;;;13.02;76.41;100408.38;4915692;29;20468;-72
2021/10/18 06:02:14;;;;;;;3.60;3.40;;;;;;;12.93;76.19;100405.41;4918557;29;20054;-71
2021/10/18 06:04:44;;;;;;;4.68;4.47;;;;;;;12.99;75.93;100417.19;4921452;29;20020;-72
2021/10/18 06:07:10;;;;;;;4.45;4.15;;;;;;;12.87;76.46;100387.34;4913984;29;20031;-73
2021/10/18 06:09:38;;;;;;;4.03;3.70;;;;;;;12.98;76.79;100399.91;4922290;29;20101;-73
2021/10/18 06:12:04;;;;;;;4.32;4.07;;;;;;;13.00;76.11;100403.19;4911773;29;20037;-73
2021/10/18 06:14:29;;;;;;;4.22;4.00;;;;;;;13.02;76.22;100389.19;4918190;29;20043;-73
2021/10/18 06:16:55;;;;;;;6.70;4.25;;;;;;;13.01;76.66;100373.81;4919373;29;20035;-72
2021/10/18 06:19:23;;;;;;;4.63;4.22;;;;;;;13.02;76.65;100384.50;4919061;29;20031;-74
2021/10/18 06:21:49;;;;;;;3.30;3.20;;;;;;;13.03;76.58;100386.16;4916248;29;20121;-73
2021/10/18 06:24:14;;;;;;;3.80;3.58;;;;;;;12.97;76.50;100370.81;4917978;29;20037;-72
2021/10/18 06:26:42;;;;;;;4.55;4.05;;;;;;;13.02;76.33;100378.19;4923219;29;20028;-73
2021/10/18 06:29:10;;;;;;;5.43;5.10;;;;;;;13.02;76.69;100373.53;4907711;29;20100;-70
2021/10/18 06:31:38;;;;;;;5.10;4.65;;;;;;;13.03;77.00;100368.88;4909139;29;21612;-70
2021/10/18 06:34:03;;;;;;;4.05;3.85;;;;;;;13.15;76.87;100371.25;4921130;29;20036;-70
2021/10/18 06:36:30;;;;;;;4.78;4.47;;;;;;;13.22;76.92;100367.09;4918152;29;20028;-67
2021/10/18 06:38:55;;;;;;;4.53;4.32;;;;;;;13.25;76.78;100351.97;4918317;29;20380;-67
2021/10/18 06:41:22;;;;;;;5.55;5.22;;;;;;;13.32;77.07;100344.22;4921176;29;20028;-74
2021/10/18 06:44:00;;;;;;;;;;;;;;;;;;;;;
2021/10/18 06:46:26;;;;;;;5.85;5.55;;;;;;;13.39;77.00;100344.75;4922695;29;20087;-71
2021/10/18 06:48:54;;;;;;;7.43;6.53;;;;;;;13.34;77.36;100325.56;4922347;29;20059;-70
2021/10/18 06:51:20;;;;;;;8.13;6.60;;;;;;;13.35;77.93;100331.88;4918833;29;20020;-71
2021/10/18 06:53:53;;;;;;;5.35;5.03;;;;;;;13.40;78.06;100329.09;4922492;29;20055;-70
2021/10/18 06:56:24;;;;;;;6.82;5.65;;;;;;;13.52;78.19;100326.81;4921431;29;20032;-70
2021/10/18 06:58:49;;;;;;;5.15;4.85;;;;;;;13.59;78.66;100320.94;4934218;29;20028;-70
2021/10/18 07:01:15;;;;;;;5.28;4.93;;;;;;;13.60;78.40;100322.59;4920435;29;20394;-69
2021/10/18 07:03:41;;;;;;;5.97;5.57;;;;;;;13.68;77.97;100335.72;4921730;29;20040;-70
2021/10/18 07:06:06;;;;;;;5.10;4.80;;;;;;;13.70;78.34;100328.00;4904769;29;20040;-70
2021/10/18 07:08:32;;;;;;;6.97;6.28;;;;;;;13.75;78.76;100341.69;4903847;29;20039;-71
2021/10/18 07:10:58;;;;;;;5.70;5.15;;;;;;;13.77;78.99;100364.22;4915013;29;20032;-69
2021/10/18 07:13:23;;;;;;;6.30;5.78;;;;;;;13.80;78.67;100365.56;4920678;29;20035;-70
2021/10/18 07:15:59;;;;;;;6.18;5.68;;;;;;;13.87;78.78;100387.19;4896220;29;20109;-70
2021/10/18 07:18:27;;;;;;;5.55;4.82;;;;;;;13.88;78.60;100370.41;4917425;29;20047;-77
2021/10/18 07:20:54;;;;;;;5.32;4.88;;;;;;;13.93;78.16;100375.03;4911759;29;20028;-71
2021/10/18 07:23:20;;;;;;;4.13;3.92;;;;;;;14.02;78.17;100373.31;4935717;29;20418;-69
2021/10/18 07:25:45;;;;;;;3.95;3.75;;;;;;;14.11;78.27;100382.56;4919806;29;20036;-74
2021/10/18 07:28:11;;;;;;;2.90;2.80;;;;;;;14.23;77.69;100378.59;4912247;29;20048;-71
2021/10/18 07:30:38;;;;;;;2.78;2.58;;;;;;;14.30;78.07;100384.59;4901032;29;20034;-70
2021/10/18 07:33:04;;;;;;;4.15;3.85;;;;;;;14.37;77.94;100382.31;4889444;29;20398;-68
2021/10/18 07:35:32;;;;;;;3.65;3.45;;;;;;;14.44;77.73;100388.28;4915937;29;20068;-70
2021/10/18 07:37:59;;;;;;;3.60;3.40;;;;;;;14.49;77.46;100382.69;4916882;29;20496;-71
2021/10/18 07:40:25;;;;;;;3.40;3.20;;;;;;;14.55;77.71;100385.41;4905159;29;20438;-70
2021/10/18 07:42:51;;;;;;;3.05;2.95;;;;;;;14.53;77.68;100376.59;4900071;29;20163;-69
2021/10/18 07:45:17;;;;;;;5.28;4.88;;;;;;;14.62;77.61;100370.19;4900943;29;20442;-70
2021/10/18 07:47:43;;;;;;;4.53;4.22;;;;;;;14.68;77.78;100384.72;4923588;29;20103;-69
2021/10/18 07:50:12;;;;;;;3.97;3.78;;;;;;;14.73;77.80;100376.38;4915954;29;20073;-70
2021/10/18 07:52:38;;;;;;;1.95;1.85;;;;;;;14.77;77.52;100377.44;4921387;29;20035;-71
2021/10/18 07:55:07;;;;;;;2.17;2.08;;;;;;;14.81;77.40;100367.47;4912980;29;20063;-68
2021/10/18 07:57:44;;;;;;;;;;;;;;;;;;;;;
2021/10/18 08:00:10;;;;;;;1.60;1.50;;;;;;;14.87;77.14;100375.69;4919245;29;20105;-69
2021/10/18 08:02:36;;;;;;;1.48;1.38;;;;;;;14.95;76.97;100377.75;4925611;29;20020;-70
2021/10/18 08:05:02;;;;;;;1.60;1.60;;;;;;;14.98;76.97;100366.97;4914008;29;20111;-71
2021/10/18 08:07:31;;;;;;;3.03;2.92;;;;;;;14.98;77.14;100360.63;4913716;29;20025;-72
2021/10/18 08:09:58;;;;;;;2.35;2.25;;;;;;;14.97;76.75;100348.81;4918667;29;20040;-72
2021/10/18 08:12:23;;;;;;;1.98;1.88;;;;;;;15.05;76.98;100355.56;4903901;29;20063;-71
2021/10/18 08:14:49;;;;;;;3.58;3.38;;;;;;;15.08;77.07;100345.91;4908043;29;20402;-71
2021/10/18 08:17:17;;;;;;;3.22;3.03;;;;;;;15.11;77.05;100343.38;4921965;29;20032;-73
2021/10/18 08:19:45;;;;;;;3.58;3.47;;;;;;;15.15;77.09;100349.91;4921740;29;20513;-72
2021/10/18 08:22:10;;;;;;;4.18;3.90;;;;;;;15.13;76.73;100329.31;4910310;29;20063;-75
2021/10/18 08:24:36;;;;;;;5.32;4.97;;;;;;;15.23;76.77;100333.81;4908547;29;20387;-72
2021/10/18 08:27:02;;;;;;;4.78;4.53;;;;;;;15.23;76.87;100340.16;4921703;29;20036;-74
2021/10/18 08:29:27;;;;;;;4.80;4.40;;;;;;;15.32;77.06;100354.91;4918549;29;20032;-72
2021/10/18 08:31:53;;;;;;;5.63;5.28;;;;;;;15.35;76.83;100364.50;4924075;29;20032;-72
2021/10/18 08:34:21;;;;;;;5.82;5.35;;;;;;;15.33;77.35;100366.72;4924829;29;20040;-72
2021/10/18 08:36:46;;;;;;;5.13;4.75;;;;;;;15.38;76.97;100354.81;4922775;29;20039;-72
2021/10/18 08:42:01;;;;;;;6.28;4.75;;;;;;;15.41;77.88;100356.97;4926735;29;20039;-72
2021/10/18 08:44:27;;;;;;;6.03;5.53;;;;;;;15.46;78.30;100349.44;4907346;29;20051;-72
2021/10/18 08:46:53;;;;;;;5.95;5.45;;;;;;;15.52;78.16;100359.25;4918411;29;20095;-73
2021/10/18 08:49:21;;;;;;;8.88;5.50;;;;;;;15.58;78.10;100359.16;4908134;29;20056;-70
2021/10/18 08:51:47;;;;;;;6.82;4.82;;;;;;;15.63;78.19;100361.84;4924812;29;20107;-74
2021/10/18 08:54:15;;;;;;;7.43;6.72;;;;;;;15.59;78.50;100363.56;4904481;29;20030;-71
2021/10/18 08:56:41;;;;;;;8.07;5.68;;;;;;;15.62;79.00;100363.78;4919284;29;20028;-70
2021/10/18 08:59:07;;;;;;;6.15;5.53;;;;;;;15.62;78.90;100358.25;4918532;29;20028;-71
2021/10/18 09:01:48;;;;;;;4.20;3.90;;;;;;;15.71;79.24;100367.50;4918263;29;20043;-72
2021/10/18 09:04:16;;;;;;;5.03;4.75;;;;;;;15.76;78.93;100363.81;4918944;29;20036;-70
2021/10/18 09:06:48;;;;;;;4.90;4.47;;;;;;;15.82;78.77;100379.19;4921741;29;20028;-73
2021/10/18 09:09:14;;;;;;;7.28;5.45;;;;;;;15.84;78.65;100365.94;4934660;29;20044;-72
2021/10/18 09:11:40;;;;;;;5.95;5.43;;;;;;;15.87;78.92;100375.50;4921400;29;20110;-71
2021/10/18 09:14:06;;;;;;;5.15;4.85;;;;;;;15.90;78.75;100368.56;4920607;29;20071;-72
2021/10/18 09:16:34;;;;;;;6.60;5.53;;;;;;;15.88;78.81;100363.38;4909190;29;20028;-71
2021/10/18 09:19:06;;;;;;;6.78;5.05;;;;;;;15.86;79.05;100360.91;4902417;29;20035;-71
2021/10/18 09:21:42;;;;;;;6.22;4.75;;;;;;;15.80;79.42;100359.38;4929370;29;20060;-70
2021/10/18 09:24:19;;;;;;;;;;;;;;;15.74;79.74;100366.06;4913248;29;20028;-72
2021/10/18 09:27:00;;;;;;;9.05;6.28;;;;;;;15.58;80.36;100350.91;4901266;29;19915;-72
2021/10/18 09:29:54;;;;;;;7.70;5.55;;;;;;;15.54;80.70;100357.00;4899750;29;20040;-72
2021/10/18 09:32:35;;;;;;;6.32;5.32;;;;;;;15.47;81.05;100362.09;4915411;29;20040;-73
2021/10/18 09:35:06;;;;;;;5.40;4.97;;;;;;;15.58;81.25;100372.94;4904708;29;20035;-73
2021/10/18 09:37:43;;;;;;;5.32;4.90;;;;;;;15.59;80.95;100364.38;4896243;29;20070;-73
2021/10/18 09:40:31;;;;;;;5.65;4.63;;;;;;;15.57;81.52;100354.78;4916257;29;20031;-71
2021/10/18 09:43:14;;;;;;;4.93;4.35;;;;;;;15.61;81.77;100366.81;4906565;29;20036;-74
2021/10/18 09:46:15;;;;;;;6.75;4.75;;;;;;;15.64;81.91;100360.75;4914890;29;20530;-74
2021/10/18 10:53:32;;;;;;;5.32;4.70;;;;;;;16.33;83.29;100321.44;4920376;29;20120;-73
2021/10/18 10:56:15;;;;;;;7.10;4.47;;;;;;;16.39;83.44;100331.22;4929455;29;20379;-73
2021/10/18 10:58:52;;;;;;;5.78;5.25;;;;;;;16.47;83.30;100341.56;4919198;29;20398;-72
2021/10/18 11:01:39;;;;;;;7.28;5.05;;;;;;;16.50;83.38;100343.69;4915252;29;20115;-72
2021/10/18 11:04:29;;;;;;;6.18;4.82;;;;;;;16.60;83.11;100345.41;4919821;29;20040;-72
2021/10/18 11:07:13;;;;;;;6.50;4.68;;;;;;;16.70;83.08;100352.66;4912952;29;20021;-71
2021/10/18 11:09:55;;;;;;;6.20;5.60;;;;;;;16.85;83.11;100327.50;4917484;29;20028;-72
2021/10/18 11:12:22;;;;;;;6.22;4.72;;;;;;;16.91;82.56;100328.22;4921597;29;20044;-72
2021/10/18 11:14:59;;;;;;;5.18;4.68;;;;;;;16.93;82.87;100317.66;4912121;29;20036;-71
2021/10/18 11:17:26;;;;;;;5.15;4.25;;;;;;;16.98;82.30;100325.00;4910495;29;20047;-71
2021/10/18 11:19:58;;;;;;;11.30;5.25;;;;;;;16.96;82.58;100328.09;4912775;29;20039;-73
2021/10/18 11:22:25;;;;;;;7.95;4.57;;;;;;;16.96;82.45;100328.09;4914176;29;20108;-71
2021/10/18 11:24:53;;;;;;;5.50;4.00;;;;;;;16.90;82.78;100319.09;4913415;29;20035;-71
2021/10/18 11:27:25;;;;;;;10.15;4.40;;;;;;;17.06;82.83;100321.53;4917848;29;20052;-71
2021/10/18 11:29:55;;;;;;;7.72;5.13;;;;;;;17.17;82.47;100322.09;4919043;29;20043;-71
2021/10/18 11:32:22;;;;;;;4.30;3.90;;;;;;;17.25;82.03;100321.34;4909919;29;20088;-74
2021/10/18 11:34:49;;;;;;;5.53;4.57;;;;;;;17.33;81.40;100309.53;4924744;29;20494;-74
2021/10/18 11:37:16;;;;;;;3.75;3.42;;;;;;;17.37;81.38;100304.19;4927049;29;20040;-72
2021/10/18 11:39:42;;;;;;;8.13;4.30;;;;;;;17.32;81.37;100290.50;4910661;29;20030;-73
2021/10/18 11:42:11;;;;;;;6.70;4.65;;;;;;;17.30;81.31;100290.00;4919726;29;20052;-72
2021/10/18 11:44:54;;;;;;;4.38;4.07;;;;;;;17.22;81.47;100275.00;4924952;29;20035;-71
2021/10/18 11:47:32;;;;;;;6.65;3.95;;;;;;;17.20;81.21;100278.09;4923434;29;20032;-73
2021/10/18 11:50:19;;;;;;;6.65;4.13;;;;;;;17.30;80.72;100281.72;4937553;29;20092;-72
2021/10/18 11:53:28;;;;;;;7.20;4.63;;;;;;;17.28;80.44;100291.13;4919623;29;20028;-71
2021/10/18 11:56:09;;;;;;;4.22;3.92;;;;;;;17.24;80.90;100281.03;4915951;29;20025;-70
2021/10/18 11:58:38;;;;;;;6.57;4.25;;;;;;;17.10;81.23;100283.84;4909371;29;20062;-71
2021/10/18 12:01:16;;;;;;;;;;;;;;;;;;;;;
2021/10/18 12:03:45;;;;;;;6.15;4.03;;;;;;;16.92;81.24;100269.91;4916841;29;20482;-71
2021/10/18 12:06:12;;;;;;;4.72;3.47;;;;;;;16.92;81.16;100272.66;4918378;29;20032;-70
2021/10/18 12:08:43;;;;;;;4.90;4.53;;;;;;;16.84;81.54;100273.38;4908462;29;20035;-71
2021/10/18 12:11:14;;;;;;;5.18;4.40;;;;;;;16.79;81.84;100267.16;4916169;29;20095;-71
2021/10/18 12:13:44;;;;;;;4.90;4.45;;;;;;;16.76;82.38;100271.34;4921197;29;20036;-69
2021/10/18 12:16:20;;;;;;;4.63;4.22;;;;;;;16.72;82.28;100268.41;4917095;29;20042;-72
2021/10/18 12:18:55;;;;;;;4.70;4.30;;;;;;;16.73;82.83;100269.22;4918558;29;20038;-70
2021/10/18 12:21:54;;;;;;;5.95;4.20;;;;;;;16.70;82.53;100261.56;4912336;29;20167;-70
2021/10/18 12:24:20;;;;;;;7.28;3.75;;;;;;;16.75;82.28;100258.69;4914919;29;20044;-71
2021/10/18 12:26:49;;;;;;;3.97;3.08;;;;;;;16.75;82.76;100244.88;4912985;29;20132;-70
2021/10/18 12:29:17;;;;;;;3.90;3.60;;;;;;;16.84;82.92;100265.09;4912551;29;20048;-70
2021/10/18 12:32:19;;;;;;;3.05;2.85;;;;;;;16.84;83.39;100259.56;4905171;29;20024;-71
2021/10/18 12:34:45;;;;;;;4.07;2.85;;;;;;;16.85;83.23;100258.44;4915404;29;20521;-71
2021/10/18 12:37:14;;;;;;;3.20;2.50;;;;;;;16.98;82.89;100280.81;4915234;29;20028;-70
2021/10/18 12:39:55;;;;;;;5.32;3.33;;;;;;;16.97;82.67;100268.97;4912096;29;20495;-72
2021/10/18 12:42:21;;;;;;;4.53;2.38;;;;;;;16.99;83.25;100276.94;4909182;29;20016;-71
2021/10/18 12:44:50;;;;;;;2.30;2.10;;;;;;;16.95;82.87;100264.88;4914983;29;20514;-70
2021/10/18 12:47:17;;;;;;;4.32;2.75;;;;;;;16.93;83.44;100271.53;4910491;29;20084;-71
2021/10/18 12:49:54;;;;;;;3.15;2.10;;;;;;;16.97;83.09;100265.38;4904924;29;20061;-69